createdAt,value
2018-07-22T00:00:09.420Z,20.90
2018-07-22T00:01:09.415Z,20.94
2018-07-22T00:02:09.416Z,20.85
2018-07-22T00:03:09.411Z,20.94
2018-07-22T00:04:09.415Z,20.91
2018-07-22T00:05:09.409Z,20.97
2018-07-22T00:06:09.409Z,20.98
2018-07-22T00:07:09.402Z,21.03
2018-07-22T00:08:09.400Z,21.00
2018-07-22T00:09:09.398Z,21.05
2018-07-22T00:10:09.395Z,20.98
2018-07-22T00:11:09.391Z,20.98
2018-07-22T00:12:09.388Z,21.00
2018-07-22T00:13:09.388Z,20.93
2018-07-22T00:14:09.455Z,20.98
2018-07-22T00:15:09.382Z,20.96
2018-07-22T00:16:09.387Z,20.93
2018-07-22T00:17:09.375Z,20.98
2018-07-22T00:18:09.380Z,21.01
2018-07-22T00:19:09.376Z,20.97
2018-07-22T00:20:09.370Z,20.93
2018-07-22T00:21:09.368Z,20.93
2018-07-22T00:22:09.363Z,20.96
2018-07-22T00:23:09.363Z,21.03
2018-07-22T00:24:09.360Z,21.18
2018-07-22T00:25:09.355Z,21.15
2018-07-22T00:26:09.356Z,21.15
2018-07-22T00:27:09.354Z,21.18
2018-07-22T00:28:09.354Z,21.05
2018-07-22T00:29:09.373Z,21.06
2018-07-22T00:30:09.345Z,21.01
2018-07-22T00:31:09.348Z,20.94
2018-07-22T00:32:09.345Z,20.94
2018-07-22T00:33:09.339Z,20.88
2018-07-22T00:34:09.336Z,20.87
2018-07-22T00:35:09.334Z,20.85
2018-07-22T00:36:09.330Z,20.81
2018-07-22T00:37:09.329Z,20.85
2018-07-22T00:38:09.330Z,20.76
2018-07-22T00:39:09.328Z,20.78
2018-07-22T00:40:09.317Z,20.83
2018-07-22T00:41:09.323Z,20.93
2018-07-22T00:42:09.316Z,20.94
2018-07-22T00:43:09.312Z,20.98
2018-07-22T00:44:09.315Z,21.03
2018-07-22T00:45:09.309Z,20.98
2018-07-22T00:46:09.310Z,20.93
2018-07-22T00:47:09.305Z,20.93
2018-07-22T00:48:09.298Z,20.96
2018-07-22T00:49:09.296Z,20.90
2018-07-22T00:50:09.296Z,20.87
2018-07-22T00:51:09.291Z,20.88
2018-07-22T00:52:09.293Z,20.73
2018-07-22T00:53:09.286Z,20.75
2018-07-22T00:54:09.285Z,20.72
2018-07-22T00:55:09.281Z,20.61
2018-07-22T00:56:09.283Z,20.50
2018-07-22T00:57:09.279Z,20.51
2018-07-22T00:58:09.275Z,20.51
2018-07-22T00:59:09.274Z,20.53
2018-07-22T01:00:09.378Z,20.54
2018-07-22T01:01:09.268Z,20.48
2018-07-22T01:02:09.263Z,20.42
2018-07-22T01:03:09.260Z,20.33
2018-07-22T01:04:09.257Z,20.31
2018-07-22T01:05:09.255Z,20.42
2018-07-22T01:06:09.253Z,20.37
2018-07-22T01:07:09.250Z,20.41
2018-07-22T01:08:09.247Z,20.30
2018-07-22T01:09:09.243Z,20.26
2018-07-22T01:10:09.244Z,20.31
2018-07-22T01:11:09.240Z,20.37
2018-07-22T01:12:09.241Z,20.50
2018-07-22T01:13:09.238Z,20.42
2018-07-22T01:14:09.231Z,20.50
2018-07-22T01:15:09.230Z,20.44
2018-07-22T01:16:09.231Z,20.27
2018-07-22T01:17:09.222Z,20.25
2018-07-22T01:18:09.225Z,20.33
2018-07-22T01:19:09.219Z,20.17
2018-07-22T01:20:09.217Z,20.19
2018-07-22T01:21:09.211Z,20.08
2018-07-22T01:22:09.208Z,20.00
2018-07-22T01:23:09.209Z,19.90
2018-07-22T01:24:09.203Z,19.92
2018-07-22T01:25:09.200Z,20.05
2018-07-22T01:26:09.197Z,20.04
2018-07-22T01:27:09.196Z,20.01
2018-07-22T01:28:09.193Z,20.07
2018-07-22T01:29:09.195Z,20.07
2018-07-22T01:30:09.191Z,20.04
2018-07-22T01:31:09.191Z,20.04
2018-07-22T01:32:09.179Z,20.12
2018-07-22T01:33:09.181Z,20.25
2018-07-22T01:34:09.176Z,20.33
2018-07-22T01:35:09.172Z,20.27
2018-07-22T01:36:09.175Z,20.23
2018-07-22T01:37:09.164Z,20.13
2018-07-22T01:38:09.164Z,20.19
2018-07-22T01:39:09.163Z,20.17
2018-07-22T01:40:09.160Z,20.17
2018-07-22T01:41:09.156Z,20.19
2018-07-22T01:42:09.151Z,20.20
2018-07-22T01:43:09.183Z,20.17
2018-07-22T01:44:09.147Z,20.20
2018-07-22T01:45:09.143Z,20.34
2018-07-22T01:46:09.141Z,20.44
2018-07-22T01:47:09.138Z,20.46
2018-07-22T01:48:09.142Z,20.41
2018-07-22T01:49:09.137Z,20.33
2018-07-22T01:50:09.131Z,20.26
2018-07-22T01:51:09.127Z,20.30
2018-07-22T01:52:09.126Z,20.26
2018-07-22T01:53:09.121Z,20.27
2018-07-22T01:54:09.117Z,20.30
2018-07-22T01:55:09.118Z,20.25
2018-07-22T01:56:09.114Z,20.31
2018-07-22T01:57:09.114Z,20.34
2018-07-22T01:58:09.112Z,20.31
2018-07-22T01:59:09.104Z,20.23
2018-07-22T02:00:09.100Z,20.25
2018-07-22T02:01:09.096Z,20.30
2018-07-22T02:02:09.097Z,20.38
2018-07-22T02:03:09.091Z,20.38
2018-07-22T02:04:09.088Z,20.40
2018-07-22T02:05:09.085Z,20.51
2018-07-22T02:06:09.083Z,20.50
2018-07-22T02:07:09.080Z,20.46
2018-07-22T02:08:09.076Z,20.38
2018-07-22T02:09:09.072Z,20.40
2018-07-22T02:10:09.075Z,20.35
2018-07-22T02:11:09.067Z,20.33
2018-07-22T02:12:09.070Z,20.35
2018-07-22T02:13:09.061Z,20.40
2018-07-22T02:14:09.065Z,20.35
2018-07-22T02:15:09.066Z,20.35
2018-07-22T02:16:09.051Z,20.33
2018-07-22T02:17:09.049Z,20.35
2018-07-22T02:18:09.047Z,20.35
2018-07-22T02:19:09.044Z,20.34
2018-07-22T02:20:09.039Z,20.35
2018-07-22T02:21:09.037Z,20.35
2018-07-22T02:22:09.036Z,20.35
2018-07-22T02:23:09.035Z,20.33
2018-07-22T02:24:09.030Z,20.34
2018-07-22T02:25:09.029Z,20.33
2018-07-22T02:26:09.022Z,20.37
2018-07-22T02:27:09.020Z,20.46
2018-07-22T02:28:09.021Z,20.42
2018-07-22T02:29:09.016Z,20.44
2018-07-22T02:30:09.012Z,20.44
2018-07-22T02:31:09.010Z,20.57
2018-07-22T02:32:09.006Z,20.54
2018-07-22T02:33:09.005Z,20.50
2018-07-22T02:34:09.001Z,20.42
2018-07-22T02:35:09.000Z,20.54
2018-07-22T02:36:08.995Z,20.53
2018-07-22T02:37:08.996Z,20.58
2018-07-22T02:38:08.989Z,20.46
2018-07-22T02:39:08.989Z,20.51
2018-07-22T02:40:08.984Z,20.46
2018-07-22T02:41:08.981Z,20.42
2018-07-22T02:42:08.977Z,20.42
2018-07-22T02:43:08.975Z,20.50
2018-07-22T02:44:08.972Z,20.40
2018-07-22T02:45:08.969Z,20.33
2018-07-22T02:46:08.970Z,20.31
2018-07-22T02:47:08.971Z,20.31
2018-07-22T02:48:08.965Z,20.30
2018-07-22T02:49:08.957Z,20.33
2018-07-22T02:50:08.958Z,20.33
2018-07-22T02:51:08.955Z,20.35
2018-07-22T02:52:08.949Z,20.35
2018-07-22T02:53:08.954Z,20.33
2018-07-22T02:54:08.947Z,20.22
2018-07-22T02:55:08.942Z,20.19
2018-07-22T02:56:08.938Z,20.23
2018-07-22T02:57:08.939Z,20.17
2018-07-22T02:58:08.933Z,20.33
2018-07-22T02:59:08.932Z,20.26
2018-07-22T03:00:08.935Z,20.33
2018-07-22T03:01:08.925Z,20.22
2018-07-22T03:02:08.923Z,20.17
2018-07-22T03:03:08.935Z,20.12
2018-07-22T03:04:08.920Z,19.98
2018-07-22T03:05:08.914Z,20.00
2018-07-22T03:06:08.912Z,20.05
2018-07-22T03:07:08.914Z,20.04
2018-07-22T03:08:08.906Z,20.02
2018-07-22T03:09:08.908Z,20.08
2018-07-22T03:10:08.901Z,20.23
2018-07-22T03:11:08.895Z,20.17
2018-07-22T03:12:08.903Z,20.19
2018-07-22T03:13:08.898Z,20.12
2018-07-22T03:14:08.885Z,20.05
2018-07-22T03:15:08.886Z,20.10
2018-07-22T03:16:08.882Z,20.05
2018-07-22T03:17:08.884Z,20.08
2018-07-22T03:18:08.877Z,20.04
2018-07-22T03:19:08.882Z,20.17
2018-07-22T03:20:08.874Z,20.02
2018-07-22T03:21:08.868Z,20.04
2018-07-22T03:22:08.864Z,20.01
2018-07-22T03:23:08.866Z,20.17
2018-07-22T03:24:08.863Z,20.20
2018-07-22T03:25:08.855Z,20.12
2018-07-22T03:26:08.853Z,20.22
2018-07-22T03:27:08.850Z,20.19
2018-07-22T03:28:08.847Z,20.07
2018-07-22T03:29:08.843Z,20.08
2018-07-22T03:30:08.848Z,20.04
2018-07-22T03:31:08.846Z,20.12
2018-07-22T03:32:08.840Z,20.15
2018-07-22T03:33:08.833Z,20.16
2018-07-22T03:34:08.828Z,20.12
2018-07-22T03:35:08.832Z,20.10
2018-07-22T03:36:08.822Z,20.22
2018-07-22T03:37:08.819Z,20.15
2018-07-22T03:38:08.823Z,20.16
2018-07-22T03:39:08.816Z,20.22
2018-07-22T03:40:08.812Z,20.15
2018-07-22T03:41:08.808Z,20.19
2018-07-22T03:42:08.805Z,20.05
2018-07-22T03:43:08.802Z,20.02
2018-07-22T03:44:08.798Z,20.10
2018-07-22T03:45:08.801Z,20.01
2018-07-22T03:46:08.792Z,20.02
2018-07-22T03:47:08.793Z,20.07
2018-07-22T03:48:08.787Z,20.04
2018-07-22T03:49:08.785Z,20.10
2018-07-22T03:50:08.780Z,20.15
2018-07-22T03:51:08.792Z,20.15
2018-07-22T03:52:08.776Z,20.02
2018-07-22T03:53:08.774Z,20.01
2018-07-22T03:54:08.769Z,19.90
2018-07-22T03:55:08.765Z,20.04
2018-07-22T03:56:08.761Z,20.05
2018-07-22T03:57:08.764Z,20.10
2018-07-22T03:58:08.757Z,20.10
2018-07-22T03:59:08.753Z,20.01
2018-07-22T04:00:08.756Z,20.01
2018-07-22T04:01:08.750Z,20.07
2018-07-22T04:02:08.744Z,19.98
2018-07-22T04:03:08.744Z,20.00
2018-07-22T04:04:08.744Z,20.01
2018-07-22T04:05:08.740Z,20.01
2018-07-22T04:06:08.731Z,20.05
2018-07-22T04:07:08.734Z,20.02
2018-07-22T04:08:08.725Z,20.13
2018-07-22T04:09:08.733Z,20.08
2018-07-22T04:10:08.725Z,19.92
2018-07-22T04:11:08.719Z,19.94
2018-07-22T04:12:08.720Z,19.89
2018-07-22T04:13:08.711Z,19.94
2018-07-22T04:14:08.712Z,20.01
2018-07-22T04:15:08.705Z,19.92
2018-07-22T04:16:08.706Z,19.89
2018-07-22T04:17:08.705Z,19.89
2018-07-22T04:18:08.698Z,19.90
2018-07-22T04:19:08.695Z,19.87
2018-07-22T04:20:08.694Z,19.90
2018-07-22T04:21:08.691Z,19.83
2018-07-22T04:22:08.689Z,19.80
2018-07-22T04:23:08.682Z,19.78
2018-07-22T04:24:08.678Z,19.72
2018-07-22T04:25:08.674Z,19.70
2018-07-22T04:26:08.672Z,19.72
2018-07-22T04:27:08.670Z,19.79
2018-07-22T04:28:08.667Z,19.82
2018-07-22T04:29:08.663Z,19.82
2018-07-22T04:30:08.658Z,19.85
2018-07-22T04:31:08.662Z,19.94
2018-07-22T04:32:08.654Z,19.97
2018-07-22T04:33:08.650Z,19.98
2018-07-22T04:34:08.648Z,20.25
2018-07-22T04:35:08.642Z,20.56
2018-07-22T04:36:08.645Z,20.75
2018-07-22T04:37:08.642Z,20.96
2018-07-22T04:38:08.636Z,20.90
2018-07-22T04:39:08.634Z,20.88
2018-07-22T04:40:08.628Z,20.93
2018-07-22T04:41:08.631Z,20.90
2018-07-22T04:42:08.631Z,20.83
2018-07-22T04:43:08.622Z,20.71
2018-07-22T04:44:08.621Z,20.68
2018-07-22T04:45:08.618Z,20.48
2018-07-22T04:46:08.614Z,20.41
2018-07-22T04:47:08.610Z,20.30
2018-07-22T04:48:08.612Z,20.27
2018-07-22T04:49:08.610Z,20.26
2018-07-22T04:50:08.604Z,20.22
2018-07-22T04:51:08.603Z,20.15
2018-07-22T04:52:08.597Z,20.12
2018-07-22T04:53:08.598Z,20.10
2018-07-22T04:54:08.592Z,20.10
2018-07-22T04:55:08.590Z,20.13
2018-07-22T04:56:08.588Z,20.16
2018-07-22T04:57:08.589Z,20.10
2018-07-22T04:58:08.588Z,20.15
2018-07-22T04:59:08.578Z,20.15
2018-07-22T05:00:08.580Z,20.13
2018-07-22T05:01:08.573Z,20.15
2018-07-22T05:02:08.578Z,20.16
2018-07-22T05:03:08.570Z,20.20
2018-07-22T05:04:08.567Z,20.20
2018-07-22T05:05:08.566Z,20.12
2018-07-22T05:06:08.562Z,20.20
2018-07-22T05:07:08.561Z,20.20
2018-07-22T05:08:08.556Z,20.19
2018-07-22T05:09:08.554Z,20.17
2018-07-22T05:10:08.557Z,20.15
2018-07-22T05:11:08.548Z,20.19
2018-07-22T05:12:08.545Z,20.22
2018-07-22T05:13:08.541Z,20.04
2018-07-22T05:14:08.542Z,19.97
2018-07-22T05:15:08.541Z,19.92
2018-07-22T05:16:08.535Z,19.75
2018-07-22T05:17:08.534Z,19.83
2018-07-22T05:18:08.530Z,19.85
2018-07-22T05:19:08.528Z,19.89
2018-07-22T05:20:08.527Z,19.89
2018-07-22T05:21:08.520Z,20.05
2018-07-22T05:22:08.517Z,20.01
2018-07-22T05:23:08.517Z,20.04
2018-07-22T05:24:08.509Z,19.94
2018-07-22T05:25:08.509Z,20.12
2018-07-22T05:26:08.511Z,20.08
2018-07-22T05:27:08.509Z,20.04
2018-07-22T05:28:08.498Z,20.08
2018-07-22T05:29:08.497Z,20.15
2018-07-22T05:30:08.495Z,20.15
2018-07-22T05:31:08.497Z,20.19
2018-07-22T05:32:08.489Z,20.23
2018-07-22T05:33:08.486Z,20.30
2018-07-22T05:34:08.485Z,20.33
2018-07-22T05:35:08.481Z,20.35
2018-07-22T05:36:08.564Z,20.40
2018-07-22T05:37:08.478Z,20.48
2018-07-22T05:38:08.475Z,20.44
2018-07-22T05:39:08.467Z,20.54
2018-07-22T05:40:08.464Z,20.61
2018-07-22T05:41:08.461Z,20.58
2018-07-22T05:42:08.476Z,20.64
2018-07-22T05:43:08.457Z,20.68
2018-07-22T05:44:08.455Z,20.53
2018-07-22T05:45:08.451Z,20.60
2018-07-22T05:46:08.455Z,20.54
2018-07-22T05:47:08.453Z,20.66
2018-07-22T05:48:08.450Z,20.72
2018-07-22T05:49:08.444Z,20.72
2018-07-22T05:50:08.436Z,20.60
2018-07-22T05:51:08.443Z,20.51
2018-07-22T05:52:08.437Z,20.46
2018-07-22T05:53:08.431Z,20.48
2018-07-22T05:54:08.430Z,20.48
2018-07-22T05:55:08.425Z,20.46
2018-07-22T05:56:08.428Z,20.63
2018-07-22T05:57:08.418Z,20.72
2018-07-22T05:58:08.422Z,20.63
2018-07-22T05:59:08.414Z,20.61
2018-07-22T06:00:08.416Z,20.64
2018-07-22T06:01:08.409Z,20.75
2018-07-22T06:02:08.406Z,20.75
2018-07-22T06:03:08.420Z,20.83
2018-07-22T06:04:08.402Z,20.90
2018-07-22T06:05:08.397Z,20.97
2018-07-22T06:06:08.401Z,21.09
2018-07-22T06:07:08.397Z,21.11
2018-07-22T06:08:08.397Z,21.12
2018-07-22T06:09:08.393Z,21.24
2018-07-22T06:10:08.386Z,21.21
2018-07-22T06:11:08.384Z,21.19
2018-07-22T06:12:08.403Z,21.18
2018-07-22T06:13:08.379Z,21.34
2018-07-22T06:14:08.385Z,21.38
2018-07-22T06:15:08.376Z,21.43
2018-07-22T06:16:08.373Z,21.49
2018-07-22T06:17:08.373Z,21.64
2018-07-22T06:18:08.369Z,21.77
2018-07-22T06:19:08.372Z,21.75
2018-07-22T06:20:08.368Z,21.70
2018-07-22T06:21:08.362Z,21.73
2018-07-22T06:22:08.361Z,21.77
2018-07-22T06:23:08.362Z,21.81
2018-07-22T06:24:08.363Z,21.74
2018-07-22T06:25:08.359Z,21.77
2018-07-22T06:26:08.355Z,21.51
2018-07-22T06:27:08.356Z,21.48
2018-07-22T06:28:08.349Z,21.36
2018-07-22T06:29:08.353Z,21.33
2018-07-22T06:30:08.343Z,21.27
2018-07-22T06:31:08.342Z,21.31
2018-07-22T06:32:08.341Z,21.31
2018-07-22T06:33:08.339Z,21.22
2018-07-22T06:34:08.339Z,21.18
2018-07-22T06:35:08.399Z,21.22
2018-07-22T06:36:08.335Z,21.21
2018-07-22T06:37:08.336Z,21.21
2018-07-22T06:38:08.331Z,21.28
2018-07-22T06:39:08.330Z,21.31
2018-07-22T06:40:08.325Z,21.46
2018-07-22T06:41:08.357Z,21.58
2018-07-22T06:42:08.323Z,21.71
2018-07-22T06:43:08.328Z,21.85
2018-07-22T06:44:08.317Z,21.99
2018-07-22T06:45:08.320Z,22.04
2018-07-22T06:46:08.344Z,22.15
2018-07-22T06:47:08.313Z,22.24
2018-07-22T06:48:08.314Z,22.45
2018-07-22T06:49:08.312Z,22.41
2018-07-22T06:50:08.310Z,22.45
2018-07-22T06:51:08.313Z,22.59
2018-07-22T06:52:08.310Z,22.66
2018-07-22T06:53:08.305Z,22.74
2018-07-22T06:54:08.311Z,22.75
2018-07-22T06:55:08.300Z,22.79
2018-07-22T06:56:08.300Z,22.93
2018-07-22T06:57:08.330Z,22.94
2018-07-22T06:58:08.296Z,22.75
2018-07-22T06:59:08.304Z,22.70
2018-07-22T07:00:08.299Z,22.64
2018-07-22T07:01:08.298Z,22.51
2018-07-22T07:02:08.294Z,22.59
2018-07-22T07:03:08.299Z,22.70
2018-07-22T07:04:08.296Z,22.85
2018-07-22T07:05:08.384Z,22.93
2018-07-22T07:06:08.294Z,23.12
2018-07-22T07:07:08.288Z,23.25
2018-07-22T07:08:08.287Z,23.29
2018-07-22T07:09:08.291Z,23.38
2018-07-22T07:10:08.285Z,23.49
2018-07-22T07:11:08.284Z,23.59
2018-07-22T07:12:08.281Z,23.63
2018-07-22T07:13:08.281Z,23.68
2018-07-22T07:14:08.282Z,23.75
2018-07-22T07:15:08.282Z,23.92
2018-07-22T07:16:08.279Z,23.97
2018-07-22T07:17:08.286Z,24.06
2018-07-22T07:18:08.281Z,24.14
2018-07-22T07:19:08.279Z,24.24
2018-07-22T07:20:08.279Z,24.19
2018-07-22T07:21:08.279Z,24.29
2018-07-22T07:22:08.276Z,24.19
2018-07-22T07:23:08.276Z,24.14
2018-07-22T07:24:08.277Z,24.16
2018-07-22T07:25:08.275Z,24.02
2018-07-22T07:26:08.278Z,24.11
2018-07-22T07:27:08.285Z,24.16
2018-07-22T07:28:08.275Z,24.31
2018-07-22T07:29:08.277Z,24.27
2018-07-22T07:30:08.276Z,24.41
2018-07-22T07:31:08.278Z,24.41
2018-07-22T07:32:08.277Z,24.42
2018-07-22T07:33:08.282Z,24.55
2018-07-22T07:34:08.273Z,24.68
2018-07-22T07:35:08.273Z,24.77
2018-07-22T07:36:08.279Z,24.89
2018-07-22T07:37:08.274Z,25.05
2018-07-22T07:38:08.278Z,25.08
2018-07-22T07:39:08.279Z,25.12
2018-07-22T07:40:08.273Z,25.26
2018-07-22T07:41:08.281Z,25.22
2018-07-22T07:42:08.276Z,25.23
2018-07-22T07:43:08.279Z,25.38
2018-07-22T07:44:08.282Z,25.39
2018-07-22T07:45:08.280Z,25.49
2018-07-22T07:46:08.282Z,25.51
2018-07-22T07:47:08.285Z,25.72
2018-07-22T07:48:08.281Z,25.82
2018-07-22T07:49:08.281Z,25.85
2018-07-22T07:50:08.288Z,26.00
2018-07-22T07:51:08.285Z,26.01
2018-07-22T07:52:08.289Z,26.08
2018-07-22T07:53:08.284Z,26.08
2018-07-22T07:54:08.291Z,26.17
2018-07-22T07:55:08.286Z,26.24
2018-07-22T07:56:08.289Z,26.20
2018-07-22T07:57:08.288Z,26.28
2018-07-22T07:58:08.296Z,26.32
2018-07-22T07:59:08.296Z,26.47
2018-07-22T08:00:08.293Z,26.47
2018-07-22T08:01:08.296Z,26.34
2018-07-22T08:02:08.300Z,26.36
2018-07-22T08:03:08.298Z,26.23
2018-07-22T08:04:08.297Z,26.17
2018-07-22T08:05:08.305Z,26.28
2018-07-22T08:06:08.301Z,26.19
2018-07-22T08:07:08.303Z,26.21
2018-07-22T08:08:08.303Z,26.28
2018-07-22T08:09:08.310Z,26.04
2018-07-22T08:10:08.313Z,25.94
2018-07-22T08:11:08.308Z,25.85
2018-07-22T08:12:08.314Z,25.75
2018-07-22T08:13:08.312Z,25.78
2018-07-22T08:14:08.314Z,25.76
2018-07-22T08:15:08.313Z,25.86
2018-07-22T08:16:08.314Z,25.96
2018-07-22T08:17:08.316Z,26.01
2018-07-22T08:18:08.321Z,26.06
2018-07-22T08:19:08.368Z,26.11
2018-07-22T08:20:08.320Z,25.69
2018-07-22T08:21:08.326Z,25.54
2018-07-22T08:22:08.334Z,25.08
2018-07-22T08:23:08.325Z,24.33
2018-07-22T08:24:08.330Z,24.41
2018-07-22T08:25:08.328Z,24.39
2018-07-22T08:26:08.397Z,24.08
2018-07-22T08:27:08.330Z,24.00
2018-07-22T08:28:08.341Z,24.02
2018-07-22T08:29:08.331Z,24.12
2018-07-22T08:30:08.334Z,24.24
2018-07-22T08:31:08.336Z,24.44
2018-07-22T08:32:08.340Z,24.53
2018-07-22T08:33:08.337Z,24.89
2018-07-22T08:34:08.341Z,25.05
2018-07-22T08:35:08.337Z,25.29
2018-07-22T08:36:08.335Z,25.51
2018-07-22T08:37:08.339Z,25.74
2018-07-22T08:38:08.337Z,25.75
2018-07-22T08:39:08.340Z,25.94
2018-07-22T08:40:08.341Z,25.96
2018-07-22T08:41:08.359Z,25.72
2018-07-22T08:42:08.341Z,25.71
2018-07-22T08:43:08.353Z,25.69
2018-07-22T08:44:08.360Z,25.74
2018-07-22T08:45:08.353Z,25.69
2018-07-22T08:46:08.346Z,25.45
2018-07-22T08:47:08.350Z,25.23
2018-07-22T08:48:08.349Z,25.08
2018-07-22T08:49:08.354Z,25.08
2018-07-22T08:50:08.354Z,25.30
2018-07-22T08:51:08.355Z,25.71
2018-07-22T08:52:08.354Z,25.89
2018-07-22T08:53:08.386Z,26.00
2018-07-22T08:54:08.358Z,26.20
2018-07-22T08:55:08.363Z,26.31
2018-07-22T08:56:08.366Z,26.38
2018-07-22T08:57:08.360Z,26.49
2018-07-22T08:58:08.367Z,26.38
2018-07-22T08:59:08.366Z,26.49
2018-07-22T09:00:08.365Z,26.36
2018-07-22T09:01:08.370Z,26.27
2018-07-22T09:02:08.368Z,26.03
2018-07-22T09:03:08.372Z,26.20
2018-07-22T09:04:08.375Z,26.27
2018-07-22T09:05:08.374Z,26.38
2018-07-22T09:06:08.375Z,26.39
2018-07-22T09:07:08.376Z,26.39
2018-07-22T09:08:08.408Z,26.41
2018-07-22T09:09:08.378Z,26.57
2018-07-22T09:10:08.379Z,26.65
2018-07-22T09:11:08.380Z,26.57
2018-07-22T09:12:08.388Z,26.68
2018-07-22T09:13:08.389Z,26.69
2018-07-22T09:14:08.387Z,26.32
2018-07-22T09:15:08.390Z,26.32
2018-07-22T09:16:08.398Z,26.24
2018-07-22T09:17:08.391Z,26.03
2018-07-22T09:18:08.513Z,26.19
2018-07-22T09:19:08.396Z,26.13
2018-07-22T09:20:08.398Z,26.09
2018-07-22T09:21:08.404Z,25.85
2018-07-22T09:22:08.400Z,25.81
2018-07-22T09:23:08.401Z,25.82
2018-07-22T09:24:08.402Z,25.54
2018-07-22T09:25:08.404Z,25.56
2018-07-22T09:26:08.404Z,25.53
2018-07-22T09:27:08.476Z,25.67
2018-07-22T09:28:08.406Z,25.64
2018-07-22T09:29:08.409Z,25.54
2018-07-22T09:30:08.415Z,25.54
2018-07-22T09:31:08.416Z,25.71
2018-07-22T09:32:08.420Z,25.74
2018-07-22T09:33:08.419Z,25.86
2018-07-22T09:34:08.426Z,25.79
2018-07-22T09:35:08.418Z,25.67
2018-07-22T09:36:08.497Z,25.91
2018-07-22T09:37:08.421Z,25.78
2018-07-22T09:38:08.422Z,25.97
2018-07-22T09:39:08.424Z,25.98
2018-07-22T09:40:08.426Z,26.03
2018-07-22T09:41:08.429Z,26.38
2018-07-22T09:42:08.430Z,26.29
2018-07-22T09:43:08.427Z,26.35
2018-07-22T09:44:08.433Z,26.00
2018-07-22T09:45:08.430Z,25.75
2018-07-22T09:46:08.431Z,25.75
2018-07-22T09:47:08.434Z,25.85
2018-07-22T09:48:08.463Z,25.57
2018-07-22T09:49:08.439Z,25.48
2018-07-22T09:50:08.437Z,25.44
2018-07-22T09:51:08.439Z,25.31
2018-07-22T09:52:08.447Z,25.49
2018-07-22T09:53:08.446Z,25.57
2018-07-22T09:54:08.443Z,25.60
2018-07-22T09:55:08.443Z,25.67
2018-07-22T09:56:08.443Z,25.86
2018-07-22T09:57:08.454Z,25.86
2018-07-22T09:58:08.444Z,25.94
2018-07-22T09:59:08.471Z,25.82
2018-07-22T10:00:08.456Z,26.03
2018-07-22T10:01:08.449Z,26.21
2018-07-22T10:02:08.450Z,26.31
2018-07-22T10:03:08.455Z,26.39
2018-07-22T10:04:08.458Z,26.51
2018-07-22T10:05:08.454Z,26.60
2018-07-22T10:06:08.456Z,26.68
2018-07-22T10:07:08.456Z,26.66
2018-07-22T10:08:08.457Z,26.65
2018-07-22T10:09:08.462Z,26.81
2018-07-22T10:10:08.461Z,26.83
2018-07-22T10:11:08.475Z,26.79
2018-07-22T10:12:08.463Z,26.71
2018-07-22T10:13:08.463Z,26.72
2018-07-22T10:14:08.475Z,26.69
2018-07-22T10:15:08.468Z,26.73
2018-07-22T10:16:08.468Z,26.90
2018-07-22T10:17:08.477Z,27.02
2018-07-22T10:18:08.474Z,27.05
2018-07-22T10:19:08.473Z,27.01
2018-07-22T10:20:08.476Z,27.13
2018-07-22T10:21:08.478Z,27.20
2018-07-22T10:22:08.495Z,27.34
2018-07-22T10:23:08.480Z,27.27
2018-07-22T10:24:08.481Z,27.31
2018-07-22T10:25:08.483Z,27.34
2018-07-22T10:26:08.489Z,27.39
2018-07-22T10:27:08.491Z,27.50
2018-07-22T10:28:08.492Z,27.59
2018-07-22T10:29:08.493Z,27.58
2018-07-22T10:30:08.493Z,27.66
2018-07-22T10:31:08.494Z,27.61
2018-07-22T10:32:08.499Z,27.71
2018-07-22T10:33:08.498Z,27.71
2018-07-22T10:34:08.505Z,27.71
2018-07-22T10:35:08.502Z,27.71
2018-07-22T10:36:08.508Z,27.86
2018-07-22T10:37:08.510Z,27.91
2018-07-22T10:38:08.508Z,27.96
2018-07-22T10:39:08.516Z,27.88
2018-07-22T10:40:08.513Z,27.91
2018-07-22T10:41:08.517Z,27.87
2018-07-22T10:42:08.532Z,27.86
2018-07-22T10:43:08.552Z,28.01
2018-07-22T10:44:08.521Z,27.99
2018-07-22T10:45:08.526Z,27.99
2018-07-22T10:46:08.530Z,27.93
2018-07-22T10:47:08.529Z,27.78
2018-07-22T10:48:08.541Z,27.63
2018-07-22T10:49:08.536Z,27.59
2018-07-22T10:50:08.539Z,27.72
2018-07-22T10:51:08.548Z,27.84
2018-07-22T10:52:08.551Z,27.99
2018-07-22T10:53:08.549Z,27.86
2018-07-22T10:54:08.552Z,27.87
2018-07-22T10:55:08.555Z,27.98
2018-07-22T10:56:08.553Z,27.69
2018-07-22T10:57:08.557Z,27.66
2018-07-22T10:58:08.560Z,27.78
2018-07-22T10:59:08.561Z,27.93
2018-07-22T11:00:08.563Z,27.98
2018-07-22T11:01:08.574Z,27.99
2018-07-22T11:02:08.577Z,28.05
2018-07-22T11:03:08.650Z,28.14
2018-07-22T11:04:08.583Z,28.27
2018-07-22T11:05:08.584Z,28.39
2018-07-22T11:06:08.587Z,28.32
2018-07-22T11:07:08.585Z,28.13
2018-07-22T11:08:08.586Z,27.62
2018-07-22T11:09:08.591Z,27.50
2018-07-22T11:10:08.595Z,27.34
2018-07-22T11:11:08.599Z,27.38
2018-07-22T11:12:08.602Z,27.45
2018-07-22T11:13:08.605Z,27.03
2018-07-22T11:14:08.606Z,26.51
2018-07-22T11:15:08.606Z,26.20
2018-07-22T11:16:08.609Z,25.90
2018-07-22T11:17:08.608Z,26.13
2018-07-22T11:18:08.615Z,26.27
2018-07-22T11:19:08.622Z,26.50
2018-07-22T11:20:08.615Z,26.64
2018-07-22T11:21:08.639Z,26.47
2018-07-22T11:22:08.624Z,26.50
2018-07-22T11:23:08.629Z,26.56
2018-07-22T11:24:08.625Z,26.59
2018-07-22T11:25:08.626Z,26.59
2018-07-22T11:26:08.629Z,26.71
2018-07-22T11:27:08.631Z,26.76
2018-07-22T11:28:08.632Z,26.97
2018-07-22T11:29:08.735Z,26.97
2018-07-22T11:30:08.636Z,26.98
2018-07-22T11:31:08.644Z,26.75
2018-07-22T11:32:08.643Z,26.81
2018-07-22T11:33:08.647Z,26.75
2018-07-22T11:34:08.645Z,26.29
2018-07-22T11:35:08.652Z,26.04
2018-07-22T11:36:08.689Z,26.39
2018-07-22T11:37:08.657Z,26.28
2018-07-22T11:38:08.654Z,25.93
2018-07-22T11:39:08.654Z,25.79
2018-07-22T11:40:08.658Z,25.76
2018-07-22T11:41:08.657Z,26.13
2018-07-22T11:42:08.663Z,26.36
2018-07-22T11:43:08.660Z,26.68
2018-07-22T11:44:08.662Z,26.93
2018-07-22T11:45:08.665Z,26.98
2018-07-22T11:46:08.667Z,26.98
2018-07-22T11:47:08.667Z,26.71
2018-07-22T11:48:08.673Z,26.72
2018-07-22T11:49:08.671Z,26.69
2018-07-22T11:50:08.674Z,26.87
2018-07-22T11:51:08.674Z,26.94
2018-07-22T11:52:08.682Z,27.08
2018-07-22T11:53:08.678Z,27.21
2018-07-22T11:54:08.684Z,26.78
2018-07-22T11:55:08.687Z,26.53
2018-07-22T11:56:08.685Z,26.06
2018-07-22T11:57:08.690Z,26.23
2018-07-22T11:58:08.692Z,26.39
2018-07-22T11:59:08.690Z,26.53
2018-07-22T12:00:08.759Z,26.69
2018-07-22T12:01:08.691Z,26.91
2018-07-22T12:02:08.697Z,27.05
2018-07-22T12:03:08.695Z,27.03
2018-07-22T12:04:08.697Z,27.11
2018-07-22T12:05:08.705Z,27.12
2018-07-22T12:06:08.703Z,27.06
2018-07-22T12:07:08.703Z,27.18
2018-07-22T12:08:08.711Z,27.18
2018-07-22T12:09:08.709Z,27.28
2018-07-22T12:10:08.713Z,27.13
2018-07-22T12:11:08.717Z,27.28
2018-07-22T12:12:08.751Z,27.25
2018-07-22T12:13:08.713Z,27.38
2018-07-22T12:14:08.714Z,27.28
2018-07-22T12:15:08.718Z,27.11
2018-07-22T12:16:08.719Z,27.18
2018-07-22T12:17:08.721Z,26.94
2018-07-22T12:18:08.720Z,26.97
2018-07-22T12:19:08.732Z,27.05
2018-07-22T12:20:08.728Z,27.05
2018-07-22T12:21:08.727Z,27.11
2018-07-22T12:22:08.729Z,27.08
2018-07-22T12:23:08.736Z,27.02
2018-07-22T12:24:08.735Z,27.11
2018-07-22T12:25:08.740Z,27.23
2018-07-22T12:26:08.741Z,27.34
2018-07-22T12:27:08.742Z,27.45
2018-07-22T12:28:08.816Z,27.63
2018-07-22T12:29:08.795Z,27.61
2018-07-22T12:30:08.745Z,27.74
2018-07-22T12:31:08.752Z,27.83
2018-07-22T12:32:08.754Z,27.86
2018-07-22T12:33:08.751Z,27.95
2018-07-22T12:34:08.766Z,27.87
2018-07-22T12:35:08.761Z,27.90
2018-07-22T12:36:08.767Z,28.13
2018-07-22T12:37:08.764Z,28.17
2018-07-22T12:38:08.762Z,28.27
2018-07-22T12:39:08.768Z,28.30
2018-07-22T12:40:08.771Z,28.51
2018-07-22T12:41:08.769Z,28.72
2018-07-22T12:42:08.777Z,28.76
2018-07-22T12:43:08.781Z,28.92
2018-07-22T12:44:08.776Z,29.08
2018-07-22T12:45:08.781Z,29.07
2018-07-22T12:46:08.786Z,29.08
2018-07-22T12:47:08.785Z,28.91
2018-07-22T12:48:08.793Z,28.35
2018-07-22T12:49:08.794Z,28.39
2018-07-22T12:50:08.795Z,28.21
2018-07-22T12:51:08.804Z,28.25
2018-07-22T12:52:08.802Z,28.40